sensor_id;sensor_type;location;lat;lon;timestamp;temperature;humidity
21648;DHT22;10985;54.182;7.890;2023-07-29T00:00:43;18.40;99.90
21648;DHT22;10985;54.182;7.890;2023-07-29T00:03:09;18.40;99.90
21648;DHT22;10985;54.182;7.890;2023-07-29T00:05:36;18.40;99.90
21648;DHT22;10985;54.182;7.890;2023-07-29T00:08:01;18.40;99.90
21648;DHT22;10985;54.182;7.890;2023-07-29T00:10:27;18.40;99.90
21648;DHT22;10985;54.182;7.890;2023-07-29T00:12:52;18.40;99.90
21648;DHT22;10985;54.182;7.890;2023-07-29T00:15:18;18.40;99.90
21648;DHT22;10985;54.182;7.890;2023-07-29T00:17:43;18.40;99.90
21648;DHT22;10985;54.182;7.890;2023-07-29T00:20:09;18.40;99.90
21648;DHT22;10985;54.182;7.890;2023-07-29T00:22:35;18.40;99.90
21648;DHT22;10985;54.182;7.890;2023-07-29T00:25:00;18.40;99.90
21648;DHT22;10985;54.182;7.890;2023-07-29T00:27:26;18.40;99.90
21648;DHT22;10985;54.182;7.890;2023-07-29T00:29:52;18.40;99.90
21648;DHT22;10985;54.182;7.890;2023-07-29T00:32:17;18.40;99.90
21648;DHT22;10985;54.182;7.890;2023-07-29T00:34:43;18.40;99.90
21648;DHT22;10985;54.182;7.890;2023-07-29T00:37:08;18.30;99.90
21648;DHT22;10985;54.182;7.890;2023-07-29T00:39:34;18.30;99.90
21648;DHT22;10985;54.182;7.890;2023-07-29T00:41:59;18.30;99.90
21648;DHT22;10985;54.182;7.890;2023-07-29T00:44:25;18.30;99.90
21648;DHT22;10985;54.182;7.890;2023-07-29T00:46:52;18.30;99.90
21648;DHT22;10985;54.182;7.890;2023-07-29T00:49:19;18.30;99.90
21648;DHT22;10985;54.182;7.890;2023-07-29T00:51:45;18.30;99.90
21648;DHT22;10985;54.182;7.890;2023-07-29T00:54:10;18.30;99.90
21648;DHT22;10985;54.182;7.890;2023-07-29T00:56:36;18.30;99.90
21648;DHT22;10985;54.182;7.890;2023-07-29T00:59:03;18.30;99.90
21648;DHT22;10985;54.182;7.890;2023-07-29T01:01:30;18.30;99.90
21648;DHT22;10985;54.182;7.890;2023-07-29T01:03:55;18.30;99.90
21648;DHT22;10985;54.182;7.890;2023-07-29T01:06:39;18.30;99.90
21648;DHT22;10985;54.182;7.890;2023-07-29T01:09:25;18.30;99.90
21648;DHT22;10985;54.182;7.890;2023-07-29T01:15:01;18.30;99.90
21648;DHT22;10985;54.182;7.890;2023-07-29T01:17:33;18.30;99.90
21648;DHT22;10985;54.182;7.890;2023-07-29T01:20:06;18.30;99.90
21648;DHT22;10985;54.182;7.890;2023-07-29T01:22:36;18.30;99.90
21648;DHT22;10985;54.182;7.890;2023-07-29T01:25:03;18.30;99.90
21648;DHT22;10985;54.182;7.890;2023-07-29T01:27:29;18.30;99.90
21648;DHT22;10985;54.182;7.890;2023-07-29T01:29:55;18.30;99.90
21648;DHT22;10985;54.182;7.890;2023-07-29T01:35:30;18.30;99.90
21648;DHT22;10985;54.182;7.890;2023-07-29T01:38:07;18.30;99.90
21648;DHT22;10985;54.182;7.890;2023-07-29T01:40:35;18.30;99.90
21648;DHT22;10985;54.182;7.890;2023-07-29T01:43:01;18.30;99.90
21648;DHT22;10985;54.182;7.890;2023-07-29T01:45:26;18.30;99.90
21648;DHT22;10985;54.182;7.890;2023-07-29T01:47:52;18.30;99.90
21648;DHT22;10985;54.182;7.890;2023-07-29T01:50:17;18.20;99.90
21648;DHT22;10985;54.182;7.890;2023-07-29T01:52:43;18.30;99.90
21648;DHT22;10985;54.182;7.890;2023-07-29T01:55:08;18.20;99.90
21648;DHT22;10985;54.182;7.890;2023-07-29T01:57:34;18.20;99.90
21648;DHT22;10985;54.182;7.890;2023-07-29T02:00:00;18.20;99.90
21648;DHT22;10985;54.182;7.890;2023-07-29T02:02:25;18.20;99.90
21648;DHT22;10985;54.182;7.890;2023-07-29T02:04:51;18.20;99.90
21648;DHT22;10985;54.182;7.890;2023-07-29T02:07:18;18.20;99.90
21648;DHT22;10985;54.182;7.890;2023-07-29T02:09:44;18.20;99.90
21648;DHT22;10985;54.182;7.890;2023-07-29T02:12:10;18.20;99.90
21648;DHT22;10985;54.182;7.890;2023-07-29T02:14:35;18.20;99.90
21648;DHT22;10985;54.182;7.890;2023-07-29T02:17:01;18.20;99.90
21648;DHT22;10985;54.182;7.890;2023-07-29T02:19:26;18.20;99.90
21648;DHT22;10985;54.182;7.890;2023-07-29T02:21:52;18.20;99.90
21648;DHT22;10985;54.182;7.890;2023-07-29T02:24:17;18.10;99.90
21648;DHT22;10985;54.182;7.890;2023-07-29T02:26:43;18.10;99.90
21648;DHT22;10985;54.182;7.890;2023-07-29T02:29:08;18.10;99.90
21648;DHT22;10985;54.182;7.890;2023-07-29T02:31:34;18.10;99.90
21648;DHT22;10985;54.182;7.890;2023-07-29T02:34:00;18.10;99.90
21648;DHT22;10985;54.182;7.890;2023-07-29T02:36:25;18.10;99.90
21648;DHT22;10985;54.182;7.890;2023-07-29T02:38:51;18.10;99.90
21648;DHT22;10985;54.182;7.890;2023-07-29T02:41:16;18.10;99.90
21648;DHT22;10985;54.182;7.890;2023-07-29T02:43:43;18.10;99.90
21648;DHT22;10985;54.182;7.890;2023-07-29T02:46:09;18.10;99.90
21648;DHT22;10985;54.182;7.890;2023-07-29T02:48:34;18.10;99.90
21648;DHT22;10985;54.182;7.890;2023-07-29T02:51:00;18.10;99.90
21648;DHT22;10985;54.182;7.890;2023-07-29T02:53:25;18.10;99.90
21648;DHT22;10985;54.182;7.890;2023-07-29T02:55:51;18.10;99.90
21648;DHT22;10985;54.182;7.890;2023-07-29T02:58:16;18.10;99.90
21648;DHT22;10985;54.182;7.890;2023-07-29T03:00:42;18.10;99.90
21648;DHT22;10985;54.182;7.890;2023-07-29T03:03:08;18.10;99.90
21648;DHT22;10985;54.182;7.890;2023-07-29T03:05:34;18.10;99.90
21648;DHT22;10985;54.182;7.890;2023-07-29T03:08:00;18.10;99.90
21648;DHT22;10985;54.182;7.890;2023-07-29T03:10:26;18.10;99.90
21648;DHT22;10985;54.182;7.890;2023-07-29T03:12:54;18.10;99.90
21648;DHT22;10985;54.182;7.890;2023-07-29T03:15:23;18.10;99.90
21648;DHT22;10985;54.182;7.890;2023-07-29T03:17:49;18.10;99.90
21648;DHT22;10985;54.182;7.890;2023-07-29T03:20:15;18.10;99.90
21648;DHT22;10985;54.182;7.890;2023-07-29T03:22:40;18.10;99.90
21648;DHT22;10985;54.182;7.890;2023-07-29T03:25:06;18.20;99.90
21648;DHT22;10985;54.182;7.890;2023-07-29T03:27:31;18.10;99.90
21648;DHT22;10985;54.182;7.890;2023-07-29T03:29:57;18.20;99.90
21648;DHT22;10985;54.182;7.890;2023-07-29T03:32:22;18.20;99.90
21648;DHT22;10985;54.182;7.890;2023-07-29T03:34:48;18.20;99.90
21648;DHT22;10985;54.182;7.890;2023-07-29T03:37:13;18.20;99.90
21648;DHT22;10985;54.182;7.890;2023-07-29T03:39:39;18.20;99.90
21648;DHT22;10985;54.182;7.890;2023-07-29T03:42:05;18.20;99.90
21648;DHT22;10985;54.182;7.890;2023-07-29T03:44:30;18.20;99.90
21648;DHT22;10985;54.182;7.890;2023-07-29T03:46:57;18.20;99.90
21648;DHT22;10985;54.182;7.890;2023-07-29T03:49:22;18.10;99.90
21648;DHT22;10985;54.182;7.890;2023-07-29T03:51:48;18.10;99.90
21648;DHT22;10985;54.182;7.890;2023-07-29T03:54:13;18.10;99.90
21648;DHT22;10985;54.182;7.890;2023-07-29T03:56:38;18.10;99.90
21648;DHT22;10985;54.182;7.890;2023-07-29T03:59:05;18.00;99.90
21648;DHT22;10985;54.182;7.890;2023-07-29T04:01:31;18.00;99.90
21648;DHT22;10985;54.182;7.890;2023-07-29T04:03:57;18.10;99.90
21648;DHT22;10985;54.182;7.890;2023-07-29T04:06:23;18.00;99.90
21648;DHT22;10985;54.182;7.890;2023-07-29T04:08:49;18.00;99.90
21648;DHT22;10985;54.182;7.890;2023-07-29T04:11:15;18.00;99.90
21648;DHT22;10985;54.182;7.890;2023-07-29T04:13:40;18.00;99.90
21648;DHT22;10985;54.182;7.890;2023-07-29T04:16:06;17.90;99.90
21648;DHT22;10985;54.182;7.890;2023-07-29T04:18:31;18.00;99.90
21648;DHT22;10985;54.182;7.890;2023-07-29T04:20:57;17.90;99.90
21648;DHT22;10985;54.182;7.890;2023-07-29T04:23:23;17.90;99.90
21648;DHT22;10985;54.182;7.890;2023-07-29T04:25:48;17.90;99.90
21648;DHT22;10985;54.182;7.890;2023-07-29T04:28:15;17.90;99.90
21648;DHT22;10985;54.182;7.890;2023-07-29T04:30:40;17.90;99.90
21648;DHT22;10985;54.182;7.890;2023-07-29T04:33:06;17.90;99.90
21648;DHT22;10985;54.182;7.890;2023-07-29T04:35:31;17.90;99.90
21648;DHT22;10985;54.182;7.890;2023-07-29T04:37:57;17.90;99.90
21648;DHT22;10985;54.182;7.890;2023-07-29T04:40:22;17.90;99.90
21648;DHT22;10985;54.182;7.890;2023-07-29T04:42:50;17.90;99.90
21648;DHT22;10985;54.182;7.890;2023-07-29T04:45:16;17.90;99.90
21648;DHT22;10985;54.182;7.890;2023-07-29T04:47:42;17.90;99.90
21648;DHT22;10985;54.182;7.890;2023-07-29T04:50:07;17.80;99.90
21648;DHT22;10985;54.182;7.890;2023-07-29T04:52:33;17.90;99.90
21648;DHT22;10985;54.182;7.890;2023-07-29T04:54:59;17.80;99.90
21648;DHT22;10985;54.182;7.890;2023-07-29T04:57:24;17.90;99.90
21648;DHT22;10985;54.182;7.890;2023-07-29T04:59:49;17.90;99.90
21648;DHT22;10985;54.182;7.890;2023-07-29T05:02:15;17.90;99.90
21648;DHT22;10985;54.182;7.890;2023-07-29T05:04:41;17.90;99.90
21648;DHT22;10985;54.182;7.890;2023-07-29T05:07:06;17.90;99.90
21648;DHT22;10985;54.182;7.890;2023-07-29T05:09:32;17.90;99.90
21648;DHT22;10985;54.182;7.890;2023-07-29T05:11:57;17.90;99.90
21648;DHT22;10985;54.182;7.890;2023-07-29T05:14:23;17.90;99.90
21648;DHT22;10985;54.182;7.890;2023-07-29T05:16:49;17.90;99.90
21648;DHT22;10985;54.182;7.890;2023-07-29T05:19:15;18.00;99.90
21648;DHT22;10985;54.182;7.890;2023-07-29T05:21:40;17.90;99.90
21648;DHT22;10985;54.182;7.890;2023-07-29T05:24:06;18.00;99.90
21648;DHT22;10985;54.182;7.890;2023-07-29T05:26:31;17.90;99.90
21648;DHT22;10985;54.182;7.890;2023-07-29T05:28:57;18.00;99.90
21648;DHT22;10985;54.182;7.890;2023-07-29T05:31:22;18.00;99.90
21648;DHT22;10985;54.182;7.890;2023-07-29T05:33:48;18.00;99.90
21648;DHT22;10985;54.182;7.890;2023-07-29T05:36:14;18.00;99.90
21648;DHT22;10985;54.182;7.890;2023-07-29T05:38:39;18.00;99.90
21648;DHT22;10985;54.182;7.890;2023-07-29T05:41:05;18.00;99.90
21648;DHT22;10985;54.182;7.890;2023-07-29T05:43:30;18.00;99.90
21648;DHT22;10985;54.182;7.890;2023-07-29T05:45:56;18.00;99.90
21648;DHT22;10985;54.182;7.890;2023-07-29T05:48:21;18.00;99.90
21648;DHT22;10985;54.182;7.890;2023-07-29T05:50:47;18.10;99.90
21648;DHT22;10985;54.182;7.890;2023-07-29T05:53:14;18.10;99.90
21648;DHT22;10985;54.182;7.890;2023-07-29T05:55:39;18.10;99.90
21648;DHT22;10985;54.182;7.890;2023-07-29T05:58:05;18.10;99.90
21648;DHT22;10985;54.182;7.890;2023-07-29T06:00:31;18.10;99.90
21648;DHT22;10985;54.182;7.890;2023-07-29T06:02:56;18.10;99.90
21648;DHT22;10985;54.182;7.890;2023-07-29T06:05:22;18.10;99.90
21648;DHT22;10985;54.182;7.890;2023-07-29T06:07:47;18.10;99.90
21648;DHT22;10985;54.182;7.890;2023-07-29T06:10:14;18.20;99.90
21648;DHT22;10985;54.182;7.890;2023-07-29T06:12:43;18.20;99.90
21648;DHT22;10985;54.182;7.890;2023-07-29T06:15:09;18.20;99.90
21648;DHT22;10985;54.182;7.890;2023-07-29T06:17:35;18.20;99.90
21648;DHT22;10985;54.182;7.890;2023-07-29T06:20:00;18.30;99.90
21648;DHT22;10985;54.182;7.890;2023-07-29T06:22:26;18.40;99.90
21648;DHT22;10985;54.182;7.890;2023-07-29T06:24:51;18.40;99.90
21648;DHT22;10985;54.182;7.890;2023-07-29T06:27:17;18.40;99.90
21648;DHT22;10985;54.182;7.890;2023-07-29T06:29:42;18.40;99.90
21648;DHT22;10985;54.182;7.890;2023-07-29T06:32:08;18.40;99.90
21648;DHT22;10985;54.182;7.890;2023-07-29T06:34:33;18.50;99.90
21648;DHT22;10985;54.182;7.890;2023-07-29T06:36:59;18.50;99.90
21648;DHT22;10985;54.182;7.890;2023-07-29T06:39:24;18.50;99.90
21648;DHT22;10985;54.182;7.890;2023-07-29T06:41:50;18.50;99.90
21648;DHT22;10985;54.182;7.890;2023-07-29T06:44:15;18.50;99.90
21648;DHT22;10985;54.182;7.890;2023-07-29T06:46:41;18.50;99.90
21648;DHT22;10985;54.182;7.890;2023-07-29T06:49:06;18.50;99.90
21648;DHT22;10985;54.182;7.890;2023-07-29T06:51:32;18.50;99.90
21648;DHT22;10985;54.182;7.890;2023-07-29T06:54:00;18.50;99.90
21648;DHT22;10985;54.182;7.890;2023-07-29T06:56:26;18.50;99.90
21648;DHT22;10985;54.182;7.890;2023-07-29T06:58:52;18.50;99.90
21648;DHT22;10985;54.182;7.890;2023-07-29T07:01:18;18.50;99.90
21648;DHT22;10985;54.182;7.890;2023-07-29T07:03:43;18.50;99.90
21648;DHT22;10985;54.182;7.890;2023-07-29T07:06:09;18.50;99.90
21648;DHT22;10985;54.182;7.890;2023-07-29T07:08:34;18.50;99.90
21648;DHT22;10985;54.182;7.890;2023-07-29T07:11:00;18.50;99.90
21648;DHT22;10985;54.182;7.890;2023-07-29T07:13:25;18.60;99.90
21648;DHT22;10985;54.182;7.890;2023-07-29T07:15:54;18.60;99.90
21648;DHT22;10985;54.182;7.890;2023-07-29T07:18:20;18.60;99.90
21648;DHT22;10985;54.182;7.890;2023-07-29T07:20:48;18.60;99.90
21648;DHT22;10985;54.182;7.890;2023-07-29T07:23:14;18.60;99.90
21648;DHT22;10985;54.182;7.890;2023-07-29T07:25:41;18.70;99.90
21648;DHT22;10985;54.182;7.890;2023-07-29T07:28:07;18.70;99.90
21648;DHT22;10985;54.182;7.890;2023-07-29T07:30:33;18.70;99.90
21648;DHT22;10985;54.182;7.890;2023-07-29T07:32:58;18.70;99.90
21648;DHT22;10985;54.182;7.890;2023-07-29T07:35:24;18.70;99.90
21648;DHT22;10985;54.182;7.890;2023-07-29T07:37:49;18.70;99.90
21648;DHT22;10985;54.182;7.890;2023-07-29T07:40:15;18.80;99.90
21648;DHT22;10985;54.182;7.890;2023-07-29T07:42:40;18.80;99.90
21648;DHT22;10985;54.182;7.890;2023-07-29T07:45:06;18.80;99.90
21648;DHT22;10985;54.182;7.890;2023-07-29T07:47:35;18.90;99.90
21648;DHT22;10985;54.182;7.890;2023-07-29T07:50:04;18.90;99.90
21648;DHT22;10985;54.182;7.890;2023-07-29T07:52:32;19.00;99.90
21648;DHT22;10985;54.182;7.890;2023-07-29T07:55:01;19.00;99.90
21648;DHT22;10985;54.182;7.890;2023-07-29T07:57:27;19.10;99.90
21648;DHT22;10985;54.182;7.890;2023-07-29T07:59:53;19.10;99.90
21648;DHT22;10985;54.182;7.890;2023-07-29T08:02:22;19.10;99.90
21648;DHT22;10985;54.182;7.890;2023-07-29T08:04:48;19.10;99.90
21648;DHT22;10985;54.182;7.890;2023-07-29T08:07:14;19.20;99.90
21648;DHT22;10985;54.182;7.890;2023-07-29T08:09:43;19.30;99.90
21648;DHT22;10985;54.182;7.890;2023-07-29T08:12:09;19.30;99.90
21648;DHT22;10985;54.182;7.890;2023-07-29T08:14:35;19.40;99.90
21648;DHT22;10985;54.182;7.890;2023-07-29T08:17:04;19.60;99.90
21648;DHT22;10985;54.182;7.890;2023-07-29T08:19:33;19.60;99.90
21648;DHT22;10985;54.182;7.890;2023-07-29T08:22:02;19.60;99.90
21648;DHT22;10985;54.182;7.890;2023-07-29T08:24:28;19.70;99.90
21648;DHT22;10985;54.182;7.890;2023-07-29T08:26:54;19.80;99.90
21648;DHT22;10985;54.182;7.890;2023-07-29T08:29:19;19.80;99.90
21648;DHT22;10985;54.182;7.890;2023-07-29T08:31:45;19.90;99.90
21648;DHT22;10985;54.182;7.890;2023-07-29T08:34:11;19.90;99.90
21648;DHT22;10985;54.182;7.890;2023-07-29T08:36:37;20.10;99.90
21648;DHT22;10985;54.182;7.890;2023-07-29T08:39:03;20.20;99.90
21648;DHT22;10985;54.182;7.890;2023-07-29T08:41:32;20.40;99.90
21648;DHT22;10985;54.182;7.890;2023-07-29T08:44:12;20.50;99.90
21648;DHT22;10985;54.182;7.890;2023-07-29T08:46:40;20.70;99.90
21648;DHT22;10985;54.182;7.890;2023-07-29T08:49:08;20.90;99.90
21648;DHT22;10985;54.182;7.890;2023-07-29T08:51:41;21.00;99.90
21648;DHT22;10985;54.182;7.890;2023-07-29T08:54:08;21.10;99.90
21648;DHT22;10985;54.182;7.890;2023-07-29T08:56:34;21.20;99.90
21648;DHT22;10985;54.182;7.890;2023-07-29T08:59:00;21.30;99.90
21648;DHT22;10985;54.182;7.890;2023-07-29T09:01:28;21.40;99.90
21648;DHT22;10985;54.182;7.890;2023-07-29T09:03:56;21.40;99.90
21648;DHT22;10985;54.182;7.890;2023-07-29T09:06:27;21.50;99.90
21648;DHT22;10985;54.182;7.890;2023-07-29T09:08:56;21.60;99.90
21648;DHT22;10985;54.182;7.890;2023-07-29T09:11:24;21.80;99.90
21648;DHT22;10985;54.182;7.890;2023-07-29T09:13:50;22.00;99.90
21648;DHT22;10985;54.182;7.890;2023-07-29T09:16:16;22.20;99.90
21648;DHT22;10985;54.182;7.890;2023-07-29T09:18:42;22.30;99.90
21648;DHT22;10985;54.182;7.890;2023-07-29T09:21:10;22.40;99.90
21648;DHT22;10985;54.182;7.890;2023-07-29T09:23:44;22.40;99.90
21648;DHT22;10985;54.182;7.890;2023-07-29T09:26:13;22.50;99.90
21648;DHT22;10985;54.182;7.890;2023-07-29T09:28:39;22.50;99.90
21648;DHT22;10985;54.182;7.890;2023-07-29T09:31:19;22.50;99.90
21648;DHT22;10985;54.182;7.890;2023-07-29T09:33:46;22.50;99.90
21648;DHT22;10985;54.182;7.890;2023-07-29T09:36:12;22.50;99.90
21648;DHT22;10985;54.182;7.890;2023-07-29T09:38:41;22.50;99.90
21648;DHT22;10985;54.182;7.890;2023-07-29T09:41:07;22.40;99.90
21648;DHT22;10985;54.182;7.890;2023-07-29T09:43:34;22.60;99.90
21648;DHT22;10985;54.182;7.890;2023-07-29T09:46:02;23.00;99.90
21648;DHT22;10985;54.182;7.890;2023-07-29T09:48:41;23.40;99.90
21648;DHT22;10985;54.182;7.890;2023-07-29T09:51:16;23.80;99.90
21648;DHT22;10985;54.182;7.890;2023-07-29T09:53:47;24.30;99.90
21648;DHT22;10985;54.182;7.890;2023-07-29T09:56:14;24.60;99.90
21648;DHT22;10985;54.182;7.890;2023-07-29T09:58:40;25.00;99.90
21648;DHT22;10985;54.182;7.890;2023-07-29T10:01:11;25.40;99.90
21648;DHT22;10985;54.182;7.890;2023-07-29T10:03:37;25.60;99.90
21648;DHT22;10985;54.182;7.890;2023-07-29T10:06:06;25.70;99.90
21648;DHT22;10985;54.182;7.890;2023-07-29T10:08:32;25.70;99.90
21648;DHT22;10985;54.182;7.890;2023-07-29T10:11:01;25.90;99.90
21648;DHT22;10985;54.182;7.890;2023-07-29T10:13:27;26.00;99.90
21648;DHT22;10985;54.182;7.890;2023-07-29T10:15:54;25.90;99.90
21648;DHT22;10985;54.182;7.890;2023-07-29T10:18:20;25.70;99.90
21648;DHT22;10985;54.182;7.890;2023-07-29T10:20:48;25.60;99.90
21648;DHT22;10985;54.182;7.890;2023-07-29T10:23:17;25.60;99.90
21648;DHT22;10985;54.182;7.890;2023-07-29T10:25:49;25.50;99.90
21648;DHT22;10985;54.182;7.890;2023-07-29T10:28:15;25.50;99.90
21648;DHT22;10985;54.182;7.890;2023-07-29T10:30:42;25.60;99.90
21648;DHT22;10985;54.182;7.890;2023-07-29T10:33:08;25.70;99.90
21648;DHT22;10985;54.182;7.890;2023-07-29T10:35:36;25.80;99.90
21648;DHT22;10985;54.182;7.890;2023-07-29T10:38:03;25.80;99.90
21648;DHT22;10985;54.182;7.890;2023-07-29T10:40:51;25.70;99.90
21648;DHT22;10985;54.182;7.890;2023-07-29T10:43:25;25.70;99.90
21648;DHT22;10985;54.182;7.890;2023-07-29T10:45:51;25.60;99.90
21648;DHT22;10985;54.182;7.890;2023-07-29T10:51:25;25.60;99.90
21648;DHT22;10985;54.182;7.890;2023-07-29T10:53:56;25.60;99.90
21648;DHT22;10985;54.182;7.890;2023-07-29T10:56:33;25.60;99.90
21648;DHT22;10985;54.182;7.890;2023-07-29T10:59:22;25.60;99.90
21648;DHT22;10985;54.182;7.890;2023-07-29T11:01:57;25.60;99.90
21648;DHT22;10985;54.182;7.890;2023-07-29T11:04:24;25.80;99.90
21648;DHT22;10985;54.182;7.890;2023-07-29T11:12:34;26.50;99.90
21648;DHT22;10985;54.182;7.890;2023-07-29T11:15:04;26.60;99.90
21648;DHT22;10985;54.182;7.890;2023-07-29T11:17:32;26.80;99.90
21648;DHT22;10985;54.182;7.890;2023-07-29T11:20:01;26.90;99.90
21648;DHT22;10985;54.182;7.890;2023-07-29T11:22:27;27.00;99.90
21648;DHT22;10985;54.182;7.890;2023-07-29T11:24:53;27.00;99.90
21648;DHT22;10985;54.182;7.890;2023-07-29T11:27:18;27.20;99.90
21648;DHT22;10985;54.182;7.890;2023-07-29T11:29:44;27.30;99.90
21648;DHT22;10985;54.182;7.890;2023-07-29T11:32:09;27.30;99.90
21648;DHT22;10985;54.182;7.890;2023-07-29T11:34:35;27.30;99.90
21648;DHT22;10985;54.182;7.890;2023-07-29T11:37:00;27.20;99.90
21648;DHT22;10985;54.182;7.890;2023-07-29T11:39:26;27.20;99.90
21648;DHT22;10985;54.182;7.890;2023-07-29T11:41:51;27.00;99.90
21648;DHT22;10985;54.182;7.890;2023-07-29T11:44:17;27.00;99.90
21648;DHT22;10985;54.182;7.890;2023-07-29T11:46:43;27.00;99.90
21648;DHT22;10985;54.182;7.890;2023-07-29T11:49:09;27.10;99.90
21648;DHT22;10985;54.182;7.890;2023-07-29T11:51:36;27.10;99.90
21648;DHT22;10985;54.182;7.890;2023-07-29T11:54:02;27.20;99.90
21648;DHT22;10985;54.182;7.890;2023-07-29T11:56:29;27.60;99.90
21648;DHT22;10985;54.182;7.890;2023-07-29T11:58:55;27.90;99.90
21648;DHT22;10985;54.182;7.890;2023-07-29T12:01:22;28.20;99.90
21648;DHT22;10985;54.182;7.890;2023-07-29T12:03:48;28.40;99.90
21648;DHT22;10985;54.182;7.890;2023-07-29T12:06:15;28.70;99.90
21648;DHT22;10985;54.182;7.890;2023-07-29T12:08:41;28.80;99.90
21648;DHT22;10985;54.182;7.890;2023-07-29T12:11:08;29.00;99.90
21648;DHT22;10985;54.182;7.890;2023-07-29T12:13:35;29.30;99.90
21648;DHT22;10985;54.182;7.890;2023-07-29T12:16:02;29.40;99.90
21648;DHT22;10985;54.182;7.890;2023-07-29T12:18:32;29.60;99.90
21648;DHT22;10985;54.182;7.890;2023-07-29T12:20:57;29.60;99.90
21648;DHT22;10985;54.182;7.890;2023-07-29T12:23:26;29.50;99.90
21648;DHT22;10985;54.182;7.890;2023-07-29T12:25:57;29.40;99.90
21648;DHT22;10985;54.182;7.890;2023-07-29T12:28:23;29.10;99.90
21648;DHT22;10985;54.182;7.890;2023-07-29T12:30:56;28.90;99.90
21648;DHT22;10985;54.182;7.890;2023-07-29T12:33:32;28.80;99.90
21648;DHT22;10985;54.182;7.890;2023-07-29T12:35:58;28.70;99.90
21648;DHT22;10985;54.182;7.890;2023-07-29T12:38:28;28.60;99.90
21648;DHT22;10985;54.182;7.890;2023-07-29T12:40:54;28.50;99.90
21648;DHT22;10985;54.182;7.890;2023-07-29T12:43:20;28.60;99.90
21648;DHT22;10985;54.182;7.890;2023-07-29T12:45:46;28.70;99.90
21648;DHT22;10985;54.182;7.890;2023-07-29T12:48:11;28.90;99.90
21648;DHT22;10985;54.182;7.890;2023-07-29T12:50:40;29.20;99.90
21648;DHT22;10985;54.182;7.890;2023-07-29T12:53:07;29.50;99.90
21648;DHT22;10985;54.182;7.890;2023-07-29T12:55:33;29.70;99.90
21648;DHT22;10985;54.182;7.890;2023-07-29T12:57:59;30.10;99.90
21648;DHT22;10985;54.182;7.890;2023-07-29T13:00:25;30.30;99.90
21648;DHT22;10985;54.182;7.890;2023-07-29T13:02:50;30.40;99.90
21648;DHT22;10985;54.182;7.890;2023-07-29T13:05:16;30.70;99.90
21648;DHT22;10985;54.182;7.890;2023-07-29T13:07:42;30.80;99.90
21648;DHT22;10985;54.182;7.890;2023-07-29T13:10:09;30.90;99.90
21648;DHT22;10985;54.182;7.890;2023-07-29T13:12:34;30.90;99.90
21648;DHT22;10985;54.182;7.890;2023-07-29T13:15:00;30.80;99.90
21648;DHT22;10985;54.182;7.890;2023-07-29T13:17:25;30.80;99.90
21648;DHT22;10985;54.182;7.890;2023-07-29T13:19:51;30.60;99.90
21648;DHT22;10985;54.182;7.890;2023-07-29T13:22:17;30.40;99.90
21648;DHT22;10985;54.182;7.890;2023-07-29T13:24:42;30.20;99.90
21648;DHT22;10985;54.182;7.890;2023-07-29T13:27:08;29.90;99.90
21648;DHT22;10985;54.182;7.890;2023-07-29T13:29:33;29.80;99.90
21648;DHT22;10985;54.182;7.890;2023-07-29T13:31:59;29.60;99.90
21648;DHT22;10985;54.182;7.890;2023-07-29T13:34:24;29.40;99.90
21648;DHT22;10985;54.182;7.890;2023-07-29T13:36:50;28.90;99.90
21648;DHT22;10985;54.182;7.890;2023-07-29T13:39:15;28.50;99.90
21648;DHT22;10985;54.182;7.890;2023-07-29T13:41:41;28.40;99.90
21648;DHT22;10985;54.182;7.890;2023-07-29T13:44:07;28.10;99.90
21648;DHT22;10985;54.182;7.890;2023-07-29T13:46:32;27.90;99.90
21648;DHT22;10985;54.182;7.890;2023-07-29T13:48:58;27.70;99.90
21648;DHT22;10985;54.182;7.890;2023-07-29T13:51:24;27.40;99.90
21648;DHT22;10985;54.182;7.890;2023-07-29T13:53:49;27.30;99.90
21648;DHT22;10985;54.182;7.890;2023-07-29T13:56:15;27.20;99.90
21648;DHT22;10985;54.182;7.890;2023-07-29T13:58:40;27.00;99.90
21648;DHT22;10985;54.182;7.890;2023-07-29T14:01:06;26.80;99.90
21648;DHT22;10985;54.182;7.890;2023-07-29T14:03:31;26.60;99.90
21648;DHT22;10985;54.182;7.890;2023-07-29T14:05:57;26.50;99.90
21648;DHT22;10985;54.182;7.890;2023-07-29T14:08:22;26.30;99.90
21648;DHT22;10985;54.182;7.890;2023-07-29T14:10:49;26.10;99.90
21648;DHT22;10985;54.182;7.890;2023-07-29T14:13:14;25.90;99.90
21648;DHT22;10985;54.182;7.890;2023-07-29T14:15:40;25.70;99.90
21648;DHT22;10985;54.182;7.890;2023-07-29T14:18:06;25.60;99.90
21648;DHT22;10985;54.182;7.890;2023-07-29T14:20:32;25.50;99.90
21648;DHT22;10985;54.182;7.890;2023-07-29T14:22:57;25.50;99.90
21648;DHT22;10985;54.182;7.890;2023-07-29T14:25:23;25.40;99.90
21648;DHT22;10985;54.182;7.890;2023-07-29T14:27:49;25.40;99.90
21648;DHT22;10985;54.182;7.890;2023-07-29T14:30:14;25.20;99.90
21648;DHT22;10985;54.182;7.890;2023-07-29T14:32:40;25.10;99.90
21648;DHT22;10985;54.182;7.890;2023-07-29T14:35:06;24.90;99.90
21648;DHT22;10985;54.182;7.890;2023-07-29T14:37:33;24.80;99.90
21648;DHT22;10985;54.182;7.890;2023-07-29T14:39:59;24.80;99.90
21648;DHT22;10985;54.182;7.890;2023-07-29T14:42:25;24.60;99.90
21648;DHT22;10985;54.182;7.890;2023-07-29T14:44:50;24.40;99.90
21648;DHT22;10985;54.182;7.890;2023-07-29T14:47:16;24.30;99.90
21648;DHT22;10985;54.182;7.890;2023-07-29T14:49:41;24.20;99.90
21648;DHT22;10985;54.182;7.890;2023-07-29T14:52:07;24.20;99.90
21648;DHT22;10985;54.182;7.890;2023-07-29T14:54:32;24.10;99.90
21648;DHT22;10985;54.182;7.890;2023-07-29T14:56:58;24.10;99.90
21648;DHT22;10985;54.182;7.890;2023-07-29T14:59:23;24.00;99.90
21648;DHT22;10985;54.182;7.890;2023-07-29T15:01:49;23.90;99.90
21648;DHT22;10985;54.182;7.890;2023-07-29T15:04:15;24.00;99.90
21648;DHT22;10985;54.182;7.890;2023-07-29T15:06:40;23.90;99.90
21648;DHT22;10985;54.182;7.890;2023-07-29T15:09:05;23.90;99.90
21648;DHT22;10985;54.182;7.890;2023-07-29T15:11:32;23.90;99.90
21648;DHT22;10985;54.182;7.890;2023-07-29T15:13:58;23.80;99.90
21648;DHT22;10985;54.182;7.890;2023-07-29T15:16:24;23.80;99.90
21648;DHT22;10985;54.182;7.890;2023-07-29T15:18:50;23.70;99.90
21648;DHT22;10985;54.182;7.890;2023-07-29T15:21:16;23.60;99.90
21648;DHT22;10985;54.182;7.890;2023-07-29T15:23:43;23.50;99.90
21648;DHT22;10985;54.182;7.890;2023-07-29T15:26:08;23.50;99.90
21648;DHT22;10985;54.182;7.890;2023-07-29T15:28:34;23.40;99.90
21648;DHT22;10985;54.182;7.890;2023-07-29T15:31:01;23.40;99.90
21648;DHT22;10985;54.182;7.890;2023-07-29T15:33:27;23.40;99.90
21648;DHT22;10985;54.182;7.890;2023-07-29T15:35:52;23.30;99.90
21648;DHT22;10985;54.182;7.890;2023-07-29T15:38:18;23.30;99.90
21648;DHT22;10985;54.182;7.890;2023-07-29T15:40:44;23.30;99.90